sensor_id;sensor_type;location;lat;lon;timestamp;P1;durP1;ratioP1;P2;durP2;ratioP2
5125;SDS011;63008;53.112;8.896;2024-02-15T00:02:00;24.30;;;15.87;;
5125;SDS011;63008;53.112;8.896;2024-02-15T00:04:01;24.07;;;15.80;;
5125;SDS011;63008;53.112;8.896;2024-02-15T00:06:02;19.23;;;14.13;;
5125;SDS011;63008;53.112;8.896;2024-02-15T00:08:03;23.50;;;16.50;;
5125;SDS011;63008;53.112;8.896;2024-02-15T00:10:05;19.53;;;14.17;;
5125;SDS011;63008;53.112;8.896;2024-02-15T00:12:06;19.20;;;14.70;;
5125;SDS011;63008;53.112;8.896;2024-02-15T00:14:08;22.37;;;15.73;;
5125;SDS011;63008;53.112;8.896;2024-02-15T00:16:12;22.07;;;15.47;;
5125;SDS011;63008;53.112;8.896;2024-02-15T00:18:16;22.33;;;15.70;;
5125;SDS011;63008;53.112;8.896;2024-02-15T00:20:17;22.93;;;15.63;;
5125;SDS011;63008;53.112;8.896;2024-02-15T00:22:18;19.83;;;13.77;;
5125;SDS011;63008;53.112;8.896;2024-02-15T00:24:19;23.00;;;16.17;;
5125;SDS011;63008;53.112;8.896;2024-02-15T00:26:20;22.40;;;15.70;;
5125;SDS011;63008;53.112;8.896;2024-02-15T00:28:22;20.70;;;15.17;;
5125;SDS011;63008;53.112;8.896;2024-02-15T00:30:24;22.40;;;15.60;;
5125;SDS011;63008;53.112;8.896;2024-02-15T00:32:25;21.53;;;15.63;;
5125;SDS011;63008;53.112;8.896;2024-02-15T00:34:26;26.83;;;17.20;;
5125;SDS011;63008;53.112;8.896;2024-02-15T00:36:28;26.23;;;16.60;;
5125;SDS011;63008;53.112;8.896;2024-02-15T00:38:33;24.47;;;16.50;;
5125;SDS011;63008;53.112;8.896;2024-02-15T00:40:34;23.97;;;15.53;;
5125;SDS011;63008;53.112;8.896;2024-02-15T00:42:35;27.13;;;17.93;;
5125;SDS011;63008;53.112;8.896;2024-02-15T00:44:36;23.47;;;15.20;;
5125;SDS011;63008;53.112;8.896;2024-02-15T00:46:38;26.17;;;18.27;;
5125;SDS011;63008;53.112;8.896;2024-02-15T00:48:39;24.33;;;17.47;;
5125;SDS011;63008;53.112;8.896;2024-02-15T00:50:41;23.83;;;17.30;;
5125;SDS011;63008;53.112;8.896;2024-02-15T00:52:42;28.57;;;18.50;;
5125;SDS011;63008;53.112;8.896;2024-02-15T00:54:43;30.50;;;20.10;;
5125;SDS011;63008;53.112;8.896;2024-02-15T00:56:44;37.30;;;19.10;;
5125;SDS011;63008;53.112;8.896;2024-02-15T00:58:45;31.30;;;20.10;;
5125;SDS011;63008;53.112;8.896;2024-02-15T01:00:46;27.90;;;18.70;;
5125;SDS011;63008;53.112;8.896;2024-02-15T01:02:47;32.77;;;19.80;;
5125;SDS011;63008;53.112;8.896;2024-02-15T01:04:48;31.27;;;20.07;;
5125;SDS011;63008;53.112;8.896;2024-02-15T01:06:49;39.00;;;22.07;;
5125;SDS011;63008;53.112;8.896;2024-02-15T01:08:50;36.57;;;21.10;;
5125;SDS011;63008;53.112;8.896;2024-02-15T01:10:51;39.73;;;21.90;;
5125;SDS011;63008;53.112;8.896;2024-02-15T01:12:53;48.43;;;22.73;;
5125;SDS011;63008;53.112;8.896;2024-02-15T01:14:54;45.43;;;23.57;;
5125;SDS011;63008;53.112;8.896;2024-02-15T01:16:56;35.33;;;20.37;;
5125;SDS011;63008;53.112;8.896;2024-02-15T01:18:57;41.10;;;22.70;;
5125;SDS011;63008;53.112;8.896;2024-02-15T01:20:58;40.27;;;23.53;;
5125;SDS011;63008;53.112;8.896;2024-02-15T01:22:59;40.77;;;22.40;;
5125;SDS011;63008;53.112;8.896;2024-02-15T01:25:00;41.27;;;22.40;;
5125;SDS011;63008;53.112;8.896;2024-02-15T01:27:01;43.37;;;22.90;;
5125;SDS011;63008;53.112;8.896;2024-02-15T01:29:02;41.17;;;24.53;;
5125;SDS011;63008;53.112;8.896;2024-02-15T01:31:04;40.80;;;22.17;;
5125;SDS011;63008;53.112;8.896;2024-02-15T01:33:07;44.30;;;21.80;;
5125;SDS011;63008;53.112;8.896;2024-02-15T01:35:08;41.17;;;23.37;;
5125;SDS011;63008;53.112;8.896;2024-02-15T01:37:10;40.07;;;22.53;;
5125;SDS011;63008;53.112;8.896;2024-02-15T01:39:11;46.83;;;27.60;;
5125;SDS011;63008;53.112;8.896;2024-02-15T01:41:12;39.23;;;22.00;;
5125;SDS011;63008;53.112;8.896;2024-02-15T01:43:14;43.30;;;23.80;;
5125;SDS011;63008;53.112;8.896;2024-02-15T01:45:15;45.63;;;23.83;;
5125;SDS011;63008;53.112;8.896;2024-02-15T01:47:17;41.57;;;22.90;;
5125;SDS011;63008;53.112;8.896;2024-02-15T01:49:21;43.70;;;23.70;;
5125;SDS011;63008;53.112;8.896;2024-02-15T01:51:23;41.43;;;22.90;;
5125;SDS011;63008;53.112;8.896;2024-02-15T01:53:26;42.13;;;22.17;;
5125;SDS011;63008;53.112;8.896;2024-02-15T01:55:28;42.83;;;22.50;;
5125;SDS011;63008;53.112;8.896;2024-02-15T01:57:29;41.17;;;23.50;;
5125;SDS011;63008;53.112;8.896;2024-02-15T01:59:30;44.30;;;21.57;;
5125;SDS011;63008;53.112;8.896;2024-02-15T02:01:31;39.57;;;22.23;;
5125;SDS011;63008;53.112;8.896;2024-02-15T02:03:35;44.53;;;22.23;;
5125;SDS011;63008;53.112;8.896;2024-02-15T02:05:36;38.10;;;22.67;;
5125;SDS011;63008;53.112;8.896;2024-02-15T02:07:37;39.67;;;21.67;;
5125;SDS011;63008;53.112;8.896;2024-02-15T02:09:38;44.53;;;23.03;;
5125;SDS011;63008;53.112;8.896;2024-02-15T02:11:39;39.67;;;22.57;;
5125;SDS011;63008;53.112;8.896;2024-02-15T02:13:40;39.33;;;22.10;;
5125;SDS011;63008;53.112;8.896;2024-02-15T02:15:41;36.87;;;20.70;;
5125;SDS011;63008;53.112;8.896;2024-02-15T02:17:42;37.60;;;22.07;;
5125;SDS011;63008;53.112;8.896;2024-02-15T02:19:43;38.90;;;21.33;;
5125;SDS011;63008;53.112;8.896;2024-02-15T02:21:44;45.67;;;22.20;;
5125;SDS011;63008;53.112;8.896;2024-02-15T02:23:45;39.17;;;22.60;;
5125;SDS011;63008;53.112;8.896;2024-02-15T02:25:52;31.53;;;21.20;;
5125;SDS011;63008;53.112;8.896;2024-02-15T02:27:56;35.37;;;20.53;;
5125;SDS011;63008;53.112;8.896;2024-02-15T02:29:57;33.93;;;21.17;;
5125;SDS011;63008;53.112;8.896;2024-02-15T02:31:59;31.43;;;19.07;;
5125;SDS011;63008;53.112;8.896;2024-02-15T02:34:00;36.57;;;21.80;;
5125;SDS011;63008;53.112;8.896;2024-02-15T02:36:01;33.93;;;20.90;;
5125;SDS011;63008;53.112;8.896;2024-02-15T02:38:03;33.57;;;18.40;;
5125;SDS011;63008;53.112;8.896;2024-02-15T02:40:04;32.90;;;19.53;;
5125;SDS011;63008;53.112;8.896;2024-02-15T02:42:09;30.50;;;20.30;;
5125;SDS011;63008;53.112;8.896;2024-02-15T02:44:10;33.07;;;20.10;;
5125;SDS011;63008;53.112;8.896;2024-02-15T02:46:11;32.33;;;19.80;;
5125;SDS011;63008;53.112;8.896;2024-02-15T02:48:13;31.90;;;20.17;;
5125;SDS011;63008;53.112;8.896;2024-02-15T02:50:13;28.03;;;18.63;;
5125;SDS011;63008;53.112;8.896;2024-02-15T02:52:15;27.87;;;18.03;;
5125;SDS011;63008;53.112;8.896;2024-02-15T02:54:17;32.53;;;19.33;;
5125;SDS011;63008;53.112;8.896;2024-02-15T02:56:18;27.50;;;17.00;;
5125;SDS011;63008;53.112;8.896;2024-02-15T02:58:19;32.43;;;19.33;;
5125;SDS011;63008;53.112;8.896;2024-02-15T03:00:20;29.90;;;18.67;;
5125;SDS011;63008;53.112;8.896;2024-02-15T03:02:21;34.20;;;20.20;;
5125;SDS011;63008;53.112;8.896;2024-02-15T03:04:23;32.40;;;19.37;;
5125;SDS011;63008;53.112;8.896;2024-02-15T03:06:24;35.43;;;20.77;;
5125;SDS011;63008;53.112;8.896;2024-02-15T03:08:28;31.63;;;20.87;;
5125;SDS011;63008;53.112;8.896;2024-02-15T03:10:29;31.87;;;19.70;;
5125;SDS011;63008;53.112;8.896;2024-02-15T03:12:30;33.07;;;20.40;;
5125;SDS011;63008;53.112;8.896;2024-02-15T03:14:31;32.23;;;19.70;;
5125;SDS011;63008;53.112;8.896;2024-02-15T03:16:35;39.17;;;21.10;;
5125;SDS011;63008;53.112;8.896;2024-02-15T03:18:36;35.60;;;20.43;;
5125;SDS011;63008;53.112;8.896;2024-02-15T03:20:37;39.60;;;21.07;;
5125;SDS011;63008;53.112;8.896;2024-02-15T03:22:38;32.73;;;19.97;;
5125;SDS011;63008;53.112;8.896;2024-02-15T03:24:39;33.00;;;19.40;;
5125;SDS011;63008;53.112;8.896;2024-02-15T03:26:40;32.70;;;20.00;;
5125;SDS011;63008;53.112;8.896;2024-02-15T03:28:43;32.20;;;19.37;;
5125;SDS011;63008;53.112;8.896;2024-02-15T03:30:45;32.30;;;20.10;;
5125;SDS011;63008;53.112;8.896;2024-02-15T03:32:46;38.53;;;22.30;;
5125;SDS011;63008;53.112;8.896;2024-02-15T03:34:54;31.33;;;19.90;;
5125;SDS011;63008;53.112;8.896;2024-02-15T03:36:55;35.97;;;22.00;;
5125;SDS011;63008;53.112;8.896;2024-02-15T03:38:56;45.37;;;21.97;;
5125;SDS011;63008;53.112;8.896;2024-02-15T03:40:57;42.23;;;20.80;;
5125;SDS011;63008;53.112;8.896;2024-02-15T03:42:58;38.43;;;20.60;;
5125;SDS011;63008;53.112;8.896;2024-02-15T03:44:59;36.50;;;22.57;;
5125;SDS011;63008;53.112;8.896;2024-02-15T03:47:01;37.80;;;21.07;;
5125;SDS011;63008;53.112;8.896;2024-02-15T03:49:02;35.53;;;21.07;;
5125;SDS011;63008;53.112;8.896;2024-02-15T03:51:03;39.37;;;21.57;;
5125;SDS011;63008;53.112;8.896;2024-02-15T03:53:04;32.67;;;20.80;;
5125;SDS011;63008;53.112;8.896;2024-02-15T03:55:06;38.27;;;21.73;;
5125;SDS011;63008;53.112;8.896;2024-02-15T03:57:08;40.33;;;22.20;;
5125;SDS011;63008;53.112;8.896;2024-02-15T03:59:08;34.97;;;19.70;;
5125;SDS011;63008;53.112;8.896;2024-02-15T04:01:09;32.27;;;19.13;;
5125;SDS011;63008;53.112;8.896;2024-02-15T04:03:11;37.70;;;21.57;;
5125;SDS011;63008;53.112;8.896;2024-02-15T04:05:12;37.70;;;20.07;;
5125;SDS011;63008;53.112;8.896;2024-02-15T04:07:13;36.17;;;19.70;;
5125;SDS011;63008;53.112;8.896;2024-02-15T04:09:15;32.60;;;20.07;;
5125;SDS011;63008;53.112;8.896;2024-02-15T04:11:17;42.97;;;21.03;;
5125;SDS011;63008;53.112;8.896;2024-02-15T04:13:20;28.40;;;19.33;;
5125;SDS011;63008;53.112;8.896;2024-02-15T04:15:21;34.40;;;21.10;;
5125;SDS011;63008;53.112;8.896;2024-02-15T04:17:22;32.27;;;20.30;;
5125;SDS011;63008;53.112;8.896;2024-02-15T04:19:23;30.77;;;20.67;;
5125;SDS011;63008;53.112;8.896;2024-02-15T04:21:24;32.40;;;21.10;;
5125;SDS011;63008;53.112;8.896;2024-02-15T04:23:25;32.60;;;20.23;;
5125;SDS011;63008;53.112;8.896;2024-02-15T04:25:26;29.00;;;19.80;;
5125;SDS011;63008;53.112;8.896;2024-02-15T04:27:28;31.07;;;20.37;;
5125;SDS011;63008;53.112;8.896;2024-02-15T04:29:29;26.27;;;20.00;;
5125;SDS011;63008;53.112;8.896;2024-02-15T04:31:30;31.33;;;20.50;;
5125;SDS011;63008;53.112;8.896;2024-02-15T04:33:33;29.20;;;19.97;;
5125;SDS011;63008;53.112;8.896;2024-02-15T04:35:34;26.90;;;19.20;;
5125;SDS011;63008;53.112;8.896;2024-02-15T04:37:36;31.90;;;19.93;;
5125;SDS011;63008;53.112;8.896;2024-02-15T04:39:38;26.33;;;18.00;;
5125;SDS011;63008;53.112;8.896;2024-02-15T04:41:39;36.93;;;20.67;;
5125;SDS011;63008;53.112;8.896;2024-02-15T04:43:40;31.30;;;19.10;;
5125;SDS011;63008;53.112;8.896;2024-02-15T04:45:43;32.57;;;20.70;;
5125;SDS011;63008;53.112;8.896;2024-02-15T04:47:44;30.40;;;20.47;;
5125;SDS011;63008;53.112;8.896;2024-02-15T04:49:46;31.10;;;21.77;;
5125;SDS011;63008;53.112;8.896;2024-02-15T04:51:47;36.97;;;22.07;;
5125;SDS011;63008;53.112;8.896;2024-02-15T04:53:50;29.33;;;21.53;;
5125;SDS011;63008;53.112;8.896;2024-02-15T04:55:51;37.00;;;21.40;;
5125;SDS011;63008;53.112;8.896;2024-02-15T04:57:52;30.80;;;19.90;;
5125;SDS011;63008;53.112;8.896;2024-02-15T04:59:55;35.27;;;20.83;;
5125;SDS011;63008;53.112;8.896;2024-02-15T05:01:57;32.13;;;20.50;;
5125;SDS011;63008;53.112;8.896;2024-02-15T05:03:58;32.90;;;20.53;;
5125;SDS011;63008;53.112;8.896;2024-02-15T05:06:01;33.07;;;20.43;;
5125;SDS011;63008;53.112;8.896;2024-02-15T05:08:04;36.90;;;21.23;;
5125;SDS011;63008;53.112;8.896;2024-02-15T05:10:06;36.53;;;20.97;;
5125;SDS011;63008;53.112;8.896;2024-02-15T05:12:09;35.47;;;22.17;;
5125;SDS011;63008;53.112;8.896;2024-02-15T05:14:10;37.40;;;23.03;;
5125;SDS011;63008;53.112;8.896;2024-02-15T05:16:12;43.23;;;21.77;;
5125;SDS011;63008;53.112;8.896;2024-02-15T05:18:13;38.33;;;22.43;;
5125;SDS011;63008;53.112;8.896;2024-02-15T05:20:14;36.23;;;21.10;;
5125;SDS011;63008;53.112;8.896;2024-02-15T05:22:16;34.60;;;22.07;;
5125;SDS011;63008;53.112;8.896;2024-02-15T05:24:19;40.10;;;22.57;;
5125;SDS011;63008;53.112;8.896;2024-02-15T05:26:20;49.20;;;22.87;;
5125;SDS011;63008;53.112;8.896;2024-02-15T05:28:23;47.27;;;24.30;;
5125;SDS011;63008;53.112;8.896;2024-02-15T05:30:27;42.63;;;23.80;;
5125;SDS011;63008;53.112;8.896;2024-02-15T05:32:30;49.50;;;25.50;;
5125;SDS011;63008;53.112;8.896;2024-02-15T05:34:31;44.17;;;25.10;;
5125;SDS011;63008;53.112;8.896;2024-02-15T05:36:32;41.70;;;23.73;;
5125;SDS011;63008;53.112;8.896;2024-02-15T05:38:34;51.00;;;25.63;;
5125;SDS011;63008;53.112;8.896;2024-02-15T05:40:36;40.27;;;22.80;;
5125;SDS011;63008;53.112;8.896;2024-02-15T05:42:37;55.07;;;26.67;;
5125;SDS011;63008;53.112;8.896;2024-02-15T05:44:37;46.90;;;25.10;;
5125;SDS011;63008;53.112;8.896;2024-02-15T05:46:38;49.83;;;23.80;;
5125;SDS011;63008;53.112;8.896;2024-02-15T05:48:40;49.87;;;25.07;;
5125;SDS011;63008;53.112;8.896;2024-02-15T05:50:41;46.00;;;23.80;;
5125;SDS011;63008;53.112;8.896;2024-02-15T05:52:42;46.63;;;24.40;;
5125;SDS011;63008;53.112;8.896;2024-02-15T05:54:43;54.97;;;24.43;;
5125;SDS011;63008;53.112;8.896;2024-02-15T05:56:44;52.87;;;25.63;;
5125;SDS011;63008;53.112;8.896;2024-02-15T05:58:45;54.43;;;26.17;;
5125;SDS011;63008;53.112;8.896;2024-02-15T06:00:46;52.10;;;24.80;;
5125;SDS011;63008;53.112;8.896;2024-02-15T06:02:50;51.87;;;25.20;;
5125;SDS011;63008;53.112;8.896;2024-02-15T06:04:53;55.30;;;26.23;;
5125;SDS011;63008;53.112;8.896;2024-02-15T06:06:55;51.70;;;25.73;;
5125;SDS011;63008;53.112;8.896;2024-02-15T06:08:59;63.20;;;28.00;;
5125;SDS011;63008;53.112;8.896;2024-02-15T06:11:01;53.70;;;25.87;;
5125;SDS011;63008;53.112;8.896;2024-02-15T06:13:02;60.50;;;27.43;;
5125;SDS011;63008;53.112;8.896;2024-02-15T06:15:04;49.63;;;24.30;;
5125;SDS011;63008;53.112;8.896;2024-02-15T06:17:07;57.17;;;25.67;;
5125;SDS011;63008;53.112;8.896;2024-02-15T06:19:09;57.37;;;26.93;;
5125;SDS011;63008;53.112;8.896;2024-02-15T06:21:10;57.70;;;27.53;;
5125;SDS011;63008;53.112;8.896;2024-02-15T06:23:12;57.83;;;26.27;;
5125;SDS011;63008;53.112;8.896;2024-02-15T06:25:14;52.37;;;26.77;;
5125;SDS011;63008;53.112;8.896;2024-02-15T06:27:20;52.00;;;25.13;;
5125;SDS011;63008;53.112;8.896;2024-02-15T06:29:27;54.63;;;26.20;;
5125;SDS011;63008;53.112;8.896;2024-02-15T06:31:46;52.70;;;26.33;;
5125;SDS011;63008;53.112;8.896;2024-02-15T06:34:06;53.90;;;24.60;;
5125;SDS011;63008;53.112;8.896;2024-02-15T06:36:25;54.57;;;25.07;;
5125;SDS011;63008;53.112;8.896;2024-02-15T06:38:44;51.93;;;24.10;;
5125;SDS011;63008;53.112;8.896;2024-02-15T06:41:04;54.57;;;23.93;;
5125;SDS011;63008;53.112;8.896;2024-02-15T06:43:05;49.60;;;23.50;;
5125;SDS011;63008;53.112;8.896;2024-02-15T06:45:06;52.20;;;23.77;;
5125;SDS011;63008;53.112;8.896;2024-02-15T06:47:08;60.57;;;25.40;;
5125;SDS011;63008;53.112;8.896;2024-02-15T06:49:11;51.10;;;24.90;;
5125;SDS011;63008;53.112;8.896;2024-02-15T06:51:12;54.97;;;24.20;;
5125;SDS011;63008;53.112;8.896;2024-02-15T06:53:15;56.50;;;24.87;;
5125;SDS011;63008;53.112;8.896;2024-02-15T06:55:16;52.97;;;24.97;;
5125;SDS011;63008;53.112;8.896;2024-02-15T06:57:18;45.63;;;22.77;;
5125;SDS011;63008;53.112;8.896;2024-02-15T06:59:19;48.67;;;23.37;;
5125;SDS011;63008;53.112;8.896;2024-02-15T07:01:20;46.87;;;23.17;;
5125;SDS011;63008;53.112;8.896;2024-02-15T07:03:21;48.97;;;23.63;;
5125;SDS011;63008;53.112;8.896;2024-02-15T07:05:23;56.90;;;24.80;;
5125;SDS011;63008;53.112;8.896;2024-02-15T07:07:24;45.97;;;24.00;;
5125;SDS011;63008;53.112;8.896;2024-02-15T07:09:26;44.93;;;23.07;;
5125;SDS011;63008;53.112;8.896;2024-02-15T07:11:28;45.63;;;23.00;;
5125;SDS011;63008;53.112;8.896;2024-02-15T07:13:29;47.20;;;23.47;;
5125;SDS011;63008;53.112;8.896;2024-02-15T07:15:30;45.53;;;22.90;;
5125;SDS011;63008;53.112;8.896;2024-02-15T07:17:33;53.63;;;23.00;;
5125;SDS011;63008;53.112;8.896;2024-02-15T07:19:34;44.60;;;21.23;;
5125;SDS011;63008;53.112;8.896;2024-02-15T07:21:37;50.57;;;23.67;;
5125;SDS011;63008;53.112;8.896;2024-02-15T07:23:38;51.17;;;24.40;;
5125;SDS011;63008;53.112;8.896;2024-02-15T07:25:40;45.20;;;22.63;;
5125;SDS011;63008;53.112;8.896;2024-02-15T07:27:42;46.00;;;23.80;;
5125;SDS011;63008;53.112;8.896;2024-02-15T07:29:43;49.40;;;23.20;;
5125;SDS011;63008;53.112;8.896;2024-02-15T07:31:43;44.30;;;22.03;;
5125;SDS011;63008;53.112;8.896;2024-02-15T07:33:44;36.93;;;21.77;;
5125;SDS011;63008;53.112;8.896;2024-02-15T07:35:45;47.13;;;22.20;;
5125;SDS011;63008;53.112;8.896;2024-02-15T07:37:53;44.27;;;22.97;;
5125;SDS011;63008;53.112;8.896;2024-02-15T07:39:56;44.13;;;24.10;;
5125;SDS011;63008;53.112;8.896;2024-02-15T07:41:57;44.80;;;23.10;;
5125;SDS011;63008;53.112;8.896;2024-02-15T07:44:00;44.40;;;23.37;;
5125;SDS011;63008;53.112;8.896;2024-02-15T07:46:02;48.37;;;23.30;;
5125;SDS011;63008;53.112;8.896;2024-02-15T07:48:06;42.97;;;22.67;;
5125;SDS011;63008;53.112;8.896;2024-02-15T07:50:07;40.53;;;22.70;;
5125;SDS011;63008;53.112;8.896;2024-02-15T07:52:10;39.67;;;23.70;;
5125;SDS011;63008;53.112;8.896;2024-02-15T07:54:11;40.40;;;22.87;;
5125;SDS011;63008;53.112;8.896;2024-02-15T07:56:13;44.53;;;24.83;;
5125;SDS011;63008;53.112;8.896;2024-02-15T07:58:15;43.47;;;24.07;;
5125;SDS011;63008;53.112;8.896;2024-02-15T08:00:19;42.30;;;25.50;;
5125;SDS011;63008;53.112;8.896;2024-02-15T08:02:20;39.37;;;23.10;;
5125;SDS011;63008;53.112;8.896;2024-02-15T08:04:23;41.70;;;24.80;;
5125;SDS011;63008;53.112;8.896;2024-02-15T08:06:25;39.00;;;24.43;;
5125;SDS011;63008;53.112;8.896;2024-02-15T08:08:28;47.03;;;25.13;;
5125;SDS011;63008;53.112;8.896;2024-02-15T08:10:29;41.97;;;25.07;;
5125;SDS011;63008;53.112;8.896;2024-02-15T08:12:30;41.17;;;23.83;;
5125;SDS011;63008;53.112;8.896;2024-02-15T08:14:31;43.27;;;24.77;;
5125;SDS011;63008;53.112;8.896;2024-02-15T08:16:32;45.10;;;25.60;;
5125;SDS011;63008;53.112;8.896;2024-02-15T08:18:34;41.57;;;25.30;;
5125;SDS011;63008;53.112;8.896;2024-02-15T08:20:36;37.77;;;25.07;;
5125;SDS011;63008;53.112;8.896;2024-02-15T08:22:37;41.33;;;24.90;;
5125;SDS011;63008;53.112;8.896;2024-02-15T08:24:41;40.53;;;26.17;;
5125;SDS011;63008;53.112;8.896;2024-02-15T08:26:44;34.50;;;23.73;;
5125;SDS011;63008;53.112;8.896;2024-02-15T08:28:45;40.80;;;26.17;;
5125;SDS011;63008;53.112;8.896;2024-02-15T08:30:46;37.83;;;25.53;;
5125;SDS011;63008;53.112;8.896;2024-02-15T08:32:47;39.60;;;25.80;;
5125;SDS011;63008;53.112;8.896;2024-02-15T08:34:48;36.70;;;22.50;;
5125;SDS011;63008;53.112;8.896;2024-02-15T08:36:49;43.00;;;24.40;;
5125;SDS011;63008;53.112;8.896;2024-02-15T08:38:50;41.77;;;25.10;;
5125;SDS011;63008;53.112;8.896;2024-02-15T08:40:51;42.63;;;25.00;;
5125;SDS011;63008;53.112;8.896;2024-02-15T08:42:52;38.27;;;24.03;;
5125;SDS011;63008;53.112;8.896;2024-02-15T08:44:53;46.57;;;24.93;;
5125;SDS011;63008;53.112;8.896;2024-02-15T08:46:54;44.73;;;26.30;;
5125;SDS011;63008;53.112;8.896;2024-02-15T08:48:56;43.17;;;25.47;;
5125;SDS011;63008;53.112;8.896;2024-02-15T08:50:57;47.63;;;26.70;;
5125;SDS011;63008;53.112;8.896;2024-02-15T08:52:58;48.97;;;26.80;;
5125;SDS011;63008;53.112;8.896;2024-02-15T08:54:59;47.10;;;28.00;;
5125;SDS011;63008;53.112;8.896;2024-02-15T08:57:01;42.47;;;26.23;;
5125;SDS011;63008;53.112;8.896;2024-02-15T08:59:02;55.83;;;28.60;;
5125;SDS011;63008;53.112;8.896;2024-02-15T09:01:03;45.60;;;26.80;;
5125;SDS011;63008;53.112;8.896;2024-02-15T09:03:05;43.13;;;26.87;;
5125;SDS011;63008;53.112;8.896;2024-02-15T09:05:07;44.00;;;27.50;;
5125;SDS011;63008;53.112;8.896;2024-02-15T09:07:09;58.27;;;29.30;;
5125;SDS011;63008;53.112;8.896;2024-02-15T09:09:10;47.63;;;29.13;;
5125;SDS011;63008;53.112;8.896;2024-02-15T09:11:11;50.10;;;30.60;;
5125;SDS011;63008;53.112;8.896;2024-02-15T09:13:13;42.57;;;27.63;;
5125;SDS011;63008;53.112;8.896;2024-02-15T09:15:15;47.93;;;29.67;;
5125;SDS011;63008;53.112;8.896;2024-02-15T09:17:16;42.60;;;27.87;;
5125;SDS011;63008;53.112;8.896;2024-02-15T09:19:17;52.73;;;29.00;;
5125;SDS011;63008;53.112;8.896;2024-02-15T09:21:20;43.87;;;26.43;;
5125;SDS011;63008;53.112;8.896;2024-02-15T09:23:22;45.40;;;29.03;;
5125;SDS011;63008;53.112;8.896;2024-02-15T09:25:24;43.97;;;28.80;;
5125;SDS011;63008;53.112;8.896;2024-02-15T09:27:25;52.93;;;30.33;;
5125;SDS011;63008;53.112;8.896;2024-02-15T09:29:26;44.23;;;28.43;;
5125;SDS011;63008;53.112;8.896;2024-02-15T09:31:30;51.50;;;31.07;;
5125;SDS011;63008;53.112;8.896;2024-02-15T09:33:31;50.77;;;29.97;;
5125;SDS011;63008;53.112;8.896;2024-02-15T09:35:32;55.67;;;31.00;;
5125;SDS011;63008;53.112;8.896;2024-02-15T09:37:34;50.17;;;31.20;;
5125;SDS011;63008;53.112;8.896;2024-02-15T09:39:43;53.40;;;30.00;;
5125;SDS011;63008;53.112;8.896;2024-02-15T09:41:44;51.03;;;31.57;;
5125;SDS011;63008;53.112;8.896;2024-02-15T09:43:45;44.70;;;29.87;;
5125;SDS011;63008;53.112;8.896;2024-02-15T09:45:47;53.57;;;31.40;;
5125;SDS011;63008;53.112;8.896;2024-02-15T09:47:48;59.37;;;30.57;;
5125;SDS011;63008;53.112;8.896;2024-02-15T09:49:50;51.60;;;29.27;;
5125;SDS011;63008;53.112;8.896;2024-02-15T09:51:51;49.63;;;30.07;;
5125;SDS011;63008;53.112;8.896;2024-02-15T09:53:53;47.07;;;30.37;;
5125;SDS011;63008;53.112;8.896;2024-02-15T09:55:57;60.50;;;30.40;;
5125;SDS011;63008;53.112;8.896;2024-02-15T09:58:04;48.90;;;30.83;;
5125;SDS011;63008;53.112;8.896;2024-02-15T10:00:06;44.97;;;30.50;;
5125;SDS011;63008;53.112;8.896;2024-02-15T10:02:14;58.63;;;32.60;;
5125;SDS011;63008;53.112;8.896;2024-02-15T10:04:15;56.57;;;32.47;;
5125;SDS011;63008;53.112;8.896;2024-02-15T10:06:17;57.17;;;32.47;;
5125;SDS011;63008;53.112;8.896;2024-02-15T10:08:18;58.27;;;32.57;;
5125;SDS011;63008;53.112;8.896;2024-02-15T10:10:24;52.20;;;31.00;;
5125;SDS011;63008;53.112;8.896;2024-02-15T10:12:36;58.60;;;33.23;;
5125;SDS011;63008;53.112;8.896;2024-02-15T10:14:39;48.47;;;30.90;;
5125;SDS011;63008;53.112;8.896;2024-02-15T10:16:50;58.73;;;33.23;;
5125;SDS011;63008;53.112;8.896;2024-02-15T10:18:51;61.23;;;34.13;;
5125;SDS011;63008;53.112;8.896;2024-02-15T10:20:57;54.20;;;33.60;;
5125;SDS011;63008;53.112;8.896;2024-02-15T10:25:14;59.40;;;32.60;;
5125;SDS011;63008;53.112;8.896;2024-02-15T10:27:17;53.87;;;32.43;;
5125;SDS011;63008;53.112;8.896;2024-02-15T10:29:24;59.57;;;34.70;;
5125;SDS011;63008;53.112;8.896;2024-02-15T10:31:26;55.47;;;33.50;;
5125;SDS011;63008;53.112;8.896;2024-02-15T10:33:27;50.93;;;31.47;;
5125;SDS011;63008;53.112;8.896;2024-02-15T10:35:32;56.97;;;33.40;;
5125;SDS011;63008;53.112;8.896;2024-02-15T10:37:36;57.57;;;33.17;;
5125;SDS011;63008;53.112;8.896;2024-02-15T10:39:38;61.47;;;32.70;;
5125;SDS011;63008;53.112;8.896;2024-02-15T10:41:39;63.17;;;34.30;;
5125;SDS011;63008;53.112;8.896;2024-02-15T10:43:41;53.77;;;34.27;;
5125;SDS011;63008;53.112;8.896;2024-02-15T10:45:43;53.83;;;31.63;;
5125;SDS011;63008;53.112;8.896;2024-02-15T10:47:45;58.57;;;34.07;;
5125;SDS011;63008;53.112;8.896;2024-02-15T10:49:48;59.53;;;32.87;;
5125;SDS011;63008;53.112;8.896;2024-02-15T10:51:59;62.57;;;33.80;;
5125;SDS011;63008;53.112;8.896;2024-02-15T10:54:04;55.97;;;31.87;;
5125;SDS011;63008;53.112;8.896;2024-02-15T10:58:20;45.77;;;29.80;;
5125;SDS011;63008;53.112;8.896;2024-02-15T11:00:26;50.83;;;31.03;;
5125;SDS011;63008;53.112;8.896;2024-02-15T11:02:34;46.07;;;28.40;;
5125;SDS011;63008;53.112;8.896;2024-02-15T11:04:38;43.33;;;27.10;;
5125;SDS011;63008;53.112;8.896;2024-02-15T11:06:44;54.90;;;28.10;;
5125;SDS011;63008;53.112;8.896;2024-02-15T11:08:46;46.33;;;30.17;;
5125;SDS011;63008;53.112;8.896;2024-02-15T11:10:47;38.40;;;27.30;;
5125;SDS011;63008;53.112;8.896;2024-02-15T11:12:50;48.33;;;29.37;;
5125;SDS011;63008;53.112;8.896;2024-02-15T11:14:52;47.60;;;27.00;;
5125;SDS011;63008;53.112;8.896;2024-02-15T11:16:57;41.00;;;26.93;;
5125;SDS011;63008;53.112;8.896;2024-02-15T11:19:01;40.53;;;25.60;;
5125;SDS011;63008;53.112;8.896;2024-02-15T11:21:04;36.10;;;25.20;;
5125;SDS011;63008;53.112;8.896;2024-02-15T11:23:05;37.93;;;25.77;;
5125;SDS011;63008;53.112;8.896;2024-02-15T11:25:06;38.53;;;25.50;;
5125;SDS011;63008;53.112;8.896;2024-02-15T11:27:12;42.10;;;24.43;;
5125;SDS011;63008;53.112;8.896;2024-02-15T11:31:55;37.13;;;24.37;;
5125;SDS011;63008;53.112;8.896;2024-02-15T11:33:56;33.10;;;23.37;;
5125;SDS011;63008;53.112;8.896;2024-02-15T11:38:08;36.67;;;24.87;;
5125;SDS011;63008;53.112;8.896;2024-02-15T11:42:36;33.37;;;22.60;;
5125;SDS011;63008;53.112;8.896;2024-02-15T11:44:38;32.13;;;22.57;;
5125;SDS011;63008;53.112;8.896;2024-02-15T11:46:39;38.60;;;22.90;;
5125;SDS011;63008;53.112;8.896;2024-02-15T11:48:41;34.10;;;22.70;;
5125;SDS011;63008;53.112;8.896;2024-02-15T11:50:42;35.80;;;23.07;;
5125;SDS011;63008;53.112;8.896;2024-02-15T11:52:44;34.50;;;22.70;;
5125;SDS011;63008;53.112;8.896;2024-02-15T11:54:46;34.97;;;22.60;;
5125;SDS011;63008;53.112;8.896;2024-02-15T11:56:55;35.73;;;23.90;;
5125;SDS011;63008;53.112;8.896;2024-02-15T11:59:09;28.50;;;20.67;;
5125;SDS011;63008;53.112;8.896;2024-02-15T12:01:19;27.67;;;20.73;;
5125;SDS011;63008;53.112;8.896;2024-02-15T12:03:38;28.97;;;22.37;;
5125;SDS011;63008;53.112;8.896;2024-02-15T12:05:57;32.57;;;21.83;;
5125;SDS011;63008;53.112;8.896;2024-02-15T12:08:17;39.13;;;21.57;;
5125;SDS011;63008;53.112;8.896;2024-02-15T12:10:37;25.53;;;19.83;;
5125;SDS011;63008;53.112;8.896;2024-02-15T12:12:56;30.20;;;22.93;;
5125;SDS011;63008;53.112;8.896;2024-02-15T12:15:16;32.07;;;20.27;;
5125;SDS011;63008;53.112;8.896;2024-02-15T12:17:35;28.00;;;21.00;;
5125;SDS011;63008;53.112;8.896;2024-02-15T12:19:55;25.30;;;20.87;;